sensor_id;sensor_type;location;lat;lon;timestamp;pressure;altitude;pressure_sealevel;temperature;humidity
37610;BME280;23457;51.966;8.230;2024-03-08T00:00:06;101393.88;;;3.18;100.00
37610;BME280;23457;51.966;8.230;2024-03-08T00:02:44;101389.63;;;3.19;100.00
37610;BME280;23457;51.966;8.230;2024-03-08T00:05:12;101387.53;;;3.12;100.00
37610;BME280;23457;51.966;8.230;2024-03-08T00:07:40;101387.16;;;3.20;100.00
37610;BME280;23457;51.966;8.230;2024-03-08T00:10:09;101388.31;;;2.96;100.00
37610;BME280;23457;51.966;8.230;2024-03-08T00:12:40;101386.13;;;3.02;100.00
37610;BME280;23457;51.966;8.230;2024-03-08T00:15:16;101388.75;;;3.18;100.00
37610;BME280;23457;51.966;8.230;2024-03-08T00:17:46;101381.13;;;3.20;100.00
37610;BME280;23457;51.966;8.230;2024-03-08T00:20:13;101377.25;;;2.97;100.00
37610;BME280;23457;51.966;8.230;2024-03-08T00:22:41;101378.16;;;2.98;100.00
37610;BME280;23457;51.966;8.230;2024-03-08T00:25:08;101380.38;;;2.77;100.00
37610;BME280;23457;51.966;8.230;2024-03-08T00:27:41;101378.16;;;2.98;100.00
37610;BME280;23457;51.966;8.230;2024-03-08T00:30:08;101377.09;;;2.94;100.00
37610;BME280;23457;51.966;8.230;2024-03-08T00:32:35;101379.22;;;3.01;100.00
37610;BME280;23457;51.966;8.230;2024-03-08T00:35:04;101376.75;;;2.88;100.00
37610;BME280;23457;51.966;8.230;2024-03-08T00:37:31;101384.16;;;2.98;100.00
37610;BME280;23457;51.966;8.230;2024-03-08T00:39:57;101378.53;;;2.74;100.00
37610;BME280;23457;51.966;8.230;2024-03-08T00:42:24;101375.16;;;2.90;100.00
37610;BME280;23457;51.966;8.230;2024-03-08T00:44:51;101369.56;;;2.97;100.00
37610;BME280;23457;51.966;8.230;2024-03-08T00:47:18;101370.72;;;3.02;100.00
37610;BME280;23457;51.966;8.230;2024-03-08T00:49:45;101368.94;;;3.01;100.00
37610;BME280;23457;51.966;8.230;2024-03-08T00:52:13;101360.78;;;3.08;100.00
37610;BME280;23457;51.966;8.230;2024-03-08T00:54:39;101365.22;;;2.96;100.00
37610;BME280;23457;51.966;8.230;2024-03-08T00:57:06;101363.31;;;2.77;100.00
37610;BME280;23457;51.966;8.230;2024-03-08T00:59:33;101365.41;;;2.99;100.00
37610;BME280;23457;51.966;8.230;2024-03-08T01:02:01;101356.91;;;3.00;100.00
37610;BME280;23457;51.966;8.230;2024-03-08T01:04:28;101355.66;;;2.79;100.00
37610;BME280;23457;51.966;8.230;2024-03-08T01:06:56;101340.25;;;2.94;100.00
37610;BME280;23457;51.966;8.230;2024-03-08T01:09:23;101337.88;;;2.67;100.00
37610;BME280;23457;51.966;8.230;2024-03-08T01:11:50;101337.69;;;2.79;100.00
37610;BME280;23457;51.966;8.230;2024-03-08T01:14:17;101334.44;;;2.81;100.00
37610;BME280;23457;51.966;8.230;2024-03-08T01:16:43;101327.50;;;2.95;100.00
37610;BME280;23457;51.966;8.230;2024-03-08T01:19:10;101325.91;;;2.97;100.00
37610;BME280;23457;51.966;8.230;2024-03-08T01:21:37;101323.28;;;2.81;100.00
37610;BME280;23457;51.966;8.230;2024-03-08T01:24:04;101317.94;;;2.93;100.00
37610;BME280;23457;51.966;8.230;2024-03-08T01:26:31;101318.69;;;2.75;100.00
37610;BME280;23457;51.966;8.230;2024-03-08T01:28:58;101322.75;;;2.72;100.00
37610;BME280;23457;51.966;8.230;2024-03-08T01:31:25;101306.34;;;2.99;100.00
37610;BME280;23457;51.966;8.230;2024-03-08T01:33:52;101308.84;;;2.83;100.00
37610;BME280;23457;51.966;8.230;2024-03-08T01:36:19;101305.53;;;3.00;100.00
37610;BME280;23457;51.966;8.230;2024-03-08T01:38:46;101306.03;;;3.09;100.00
37610;BME280;23457;51.966;8.230;2024-03-08T01:41:13;101304.28;;;3.08;100.00
37610;BME280;23457;51.966;8.230;2024-03-08T01:43:40;101291.91;;;3.01;100.00
37610;BME280;23457;51.966;8.230;2024-03-08T01:46:07;101285.97;;;3.02;100.00
37610;BME280;23457;51.966;8.230;2024-03-08T01:48:36;101288.91;;;2.94;100.00
37610;BME280;23457;51.966;8.230;2024-03-08T01:51:03;101283.97;;;2.82;100.00
37610;BME280;23457;51.966;8.230;2024-03-08T01:53:30;101286.19;;;2.91;100.00
37610;BME280;23457;51.966;8.230;2024-03-08T01:55:58;101281.47;;;2.98;100.00
37610;BME280;23457;51.966;8.230;2024-03-08T01:58:27;101277.41;;;2.87;100.00
37610;BME280;23457;51.966;8.230;2024-03-08T02:00:55;101279.63;;;2.81;100.00
37610;BME280;23457;51.966;8.230;2024-03-08T02:03:23;101278.63;;;2.94;100.00
37610;BME280;23457;51.966;8.230;2024-03-08T02:05:49;101277.84;;;2.80;100.00
37610;BME280;23457;51.966;8.230;2024-03-08T02:08:19;101274.84;;;2.87;100.00
37610;BME280;23457;51.966;8.230;2024-03-08T02:10:49;101263.22;;;2.94;100.00
37610;BME280;23457;51.966;8.230;2024-03-08T02:13:16;101261.94;;;2.71;100.00
37610;BME280;23457;51.966;8.230;2024-03-08T02:16:09;101267.03;;;3.00;100.00
37610;BME280;23457;51.966;8.230;2024-03-08T02:18:36;101262.94;;;2.73;100.00
37610;BME280;23457;51.966;8.230;2024-03-08T02:21:05;101262.72;;;2.84;100.00
37610;BME280;23457;51.966;8.230;2024-03-08T02:23:33;101258.25;;;2.97;100.00
37610;BME280;23457;51.966;8.230;2024-03-08T02:26:00;101264.59;;;2.87;100.00
37610;BME280;23457;51.966;8.230;2024-03-08T02:28:27;101250.06;;;2.87;100.00
37610;BME280;23457;51.966;8.230;2024-03-08T02:30:54;101258.59;;;2.72;100.00
37610;BME280;23457;51.966;8.230;2024-03-08T02:33:27;101251.56;;;2.84;100.00
37610;BME280;23457;51.966;8.230;2024-03-08T02:35:54;101251.97;;;2.75;100.00
37610;BME280;23457;51.966;8.230;2024-03-08T02:38:23;101244.03;;;2.87;100.00
37610;BME280;23457;51.966;8.230;2024-03-08T02:40:51;101245.59;;;2.54;100.00
37610;BME280;23457;51.966;8.230;2024-03-08T02:43:19;101239.44;;;2.50;100.00
37610;BME280;23457;51.966;8.230;2024-03-08T02:45:46;101239.81;;;2.73;100.00
37610;BME280;23457;51.966;8.230;2024-03-08T02:48:14;101243.00;;;2.69;100.00
37610;BME280;23457;51.966;8.230;2024-03-08T02:50:41;101237.97;;;2.70;100.00
37610;BME280;23457;51.966;8.230;2024-03-08T02:53:12;101241.50;;;2.72;100.00
37610;BME280;23457;51.966;8.230;2024-03-08T02:55:39;101239.53;;;2.83;100.00
37610;BME280;23457;51.966;8.230;2024-03-08T02:58:07;101239.34;;;2.80;100.00
37610;BME280;23457;51.966;8.230;2024-03-08T03:00:38;101240.81;;;2.75;100.00
37610;BME280;23457;51.966;8.230;2024-03-08T03:03:06;101227.47;;;2.66;100.00
37610;BME280;23457;51.966;8.230;2024-03-08T03:05:33;101227.22;;;2.46;100.00
37610;BME280;23457;51.966;8.230;2024-03-08T03:08:01;101233.06;;;2.44;100.00
37610;BME280;23457;51.966;8.230;2024-03-08T03:10:28;101220.13;;;2.42;100.00
37610;BME280;23457;51.966;8.230;2024-03-08T03:12:54;101218.53;;;2.59;100.00
37610;BME280;23457;51.966;8.230;2024-03-08T03:15:21;101215.19;;;2.45;100.00
37610;BME280;23457;51.966;8.230;2024-03-08T03:17:50;101219.63;;;2.33;100.00
37610;BME280;23457;51.966;8.230;2024-03-08T03:20:18;101214.88;;;2.39;100.00
37610;BME280;23457;51.966;8.230;2024-03-08T03:22:59;101202.47;;;2.32;100.00
37610;BME280;23457;51.966;8.230;2024-03-08T03:25:28;101213.09;;;2.38;100.00
37610;BME280;23457;51.966;8.230;2024-03-08T03:28:02;101205.72;;;2.44;100.00
37610;BME280;23457;51.966;8.230;2024-03-08T03:30:29;101205.53;;;2.41;100.00
37610;BME280;23457;51.966;8.230;2024-03-08T03:33:02;101205.44;;;2.55;100.00
37610;BME280;23457;51.966;8.230;2024-03-08T03:35:34;101197.59;;;2.51;100.00
37610;BME280;23457;51.966;8.230;2024-03-08T03:38:03;101200.66;;;2.61;100.00
37610;BME280;23457;51.966;8.230;2024-03-08T03:40:35;101201.94;;;2.38;100.00
37610;BME280;23457;51.966;8.230;2024-03-08T03:43:03;101196.81;;;2.69;100.00
37610;BME280;23457;51.966;8.230;2024-03-08T03:45:30;101195.34;;;2.58;100.00
37610;BME280;23457;51.966;8.230;2024-03-08T03:48:04;101192.72;;;2.41;100.00
37610;BME280;23457;51.966;8.230;2024-03-08T03:50:31;101191.97;;;2.59;100.00
37610;BME280;23457;51.966;8.230;2024-03-08T03:53:02;101189.47;;;2.29;100.00
37610;BME280;23457;51.966;8.230;2024-03-08T03:55:29;101183.34;;;2.42;100.00
37610;BME280;23457;51.966;8.230;2024-03-08T03:57:55;101177.50;;;2.44;100.00
37610;BME280;23457;51.966;8.230;2024-03-08T04:00:22;101175.59;;;2.40;100.00
37610;BME280;23457;51.966;8.230;2024-03-08T04:02:49;101176.50;;;2.26;100.00
37610;BME280;23457;51.966;8.230;2024-03-08T04:05:17;101173.13;;;2.27;100.00
37610;BME280;23457;51.966;8.230;2024-03-08T04:07:46;101179.75;;;2.24;100.00
37610;BME280;23457;51.966;8.230;2024-03-08T04:10:18;101170.09;;;2.34;100.00
37610;BME280;23457;51.966;8.230;2024-03-08T04:12:45;101170.66;;;2.14;100.00
37610;BME280;23457;51.966;8.230;2024-03-08T04:15:11;101170.66;;;2.14;100.00
37610;BME280;23457;51.966;8.230;2024-03-08T04:17:39;101169.78;;;2.13;100.00
37610;BME280;23457;51.966;8.230;2024-03-08T04:20:06;101161.53;;;2.34;100.00
37610;BME280;23457;51.966;8.230;2024-03-08T04:22:37;101154.94;;;1.93;100.00
37610;BME280;23457;51.966;8.230;2024-03-08T04:25:06;101148.72;;;2.19;100.00
37610;BME280;23457;51.966;8.230;2024-03-08T04:27:35;101145.56;;;1.94;100.00
37610;BME280;23457;51.966;8.230;2024-03-08T04:30:02;101150.88;;;1.97;100.00
37610;BME280;23457;51.966;8.230;2024-03-08T04:32:30;101147.69;;;1.86;100.00
37610;BME280;23457;51.966;8.230;2024-03-08T04:34:59;101145.91;;;1.70;100.00
37610;BME280;23457;51.966;8.230;2024-03-08T04:37:28;101144.06;;;1.83;100.00
37610;BME280;23457;51.966;8.230;2024-03-08T04:39:56;101145.22;;;1.88;100.00
37610;BME280;23457;51.966;8.230;2024-03-08T04:42:23;101145.84;;;1.98;100.00
37610;BME280;23457;51.966;8.230;2024-03-08T04:44:51;101138.34;;;1.87;100.00
37610;BME280;23457;51.966;8.230;2024-03-08T04:47:17;101135.59;;;1.84;100.00
37610;BME280;23457;51.966;8.230;2024-03-08T04:49:44;101137.59;;;2.04;100.00
37610;BME280;23457;51.966;8.230;2024-03-08T04:52:11;101137.34;;;1.85;100.00
37610;BME280;23457;51.966;8.230;2024-03-08T04:54:38;101130.88;;;1.91;100.00
37610;BME280;23457;51.966;8.230;2024-03-08T04:57:05;101126.50;;;1.89;100.00
37610;BME280;23457;51.966;8.230;2024-03-08T04:59:35;101131.81;;;1.77;100.00
37610;BME280;23457;51.966;8.230;2024-03-08T05:02:03;101122.06;;;1.71;100.00
37610;BME280;23457;51.966;8.230;2024-03-08T05:04:29;101127.72;;;1.66;100.00
37610;BME280;23457;51.966;8.230;2024-03-08T05:06:56;101126.66;;;1.62;100.00
37610;BME280;23457;51.966;8.230;2024-03-08T05:09:23;101122.88;;;1.70;100.00
37610;BME280;23457;51.966;8.230;2024-03-08T05:11:50;101113.41;;;1.69;100.00
37610;BME280;23457;51.966;8.230;2024-03-08T05:14:17;101110.66;;;1.66;100.00
37610;BME280;23457;51.966;8.230;2024-03-08T05:16:46;101119.59;;;1.88;100.00
37610;BME280;23457;51.966;8.230;2024-03-08T05:19:20;101109.53;;;1.61;100.00
37610;BME280;23457;51.966;8.230;2024-03-08T05:21:48;101114.47;;;1.73;100.00
37610;BME280;23457;51.966;8.230;2024-03-08T05:24:16;101112.53;;;1.69;100.00
37610;BME280;23457;51.966;8.230;2024-03-08T05:26:46;101108.09;;;1.81;100.00
37610;BME280;23457;51.966;8.230;2024-03-08T05:29:13;101112.69;;;1.72;100.00
37610;BME280;23457;51.966;8.230;2024-03-08T05:31:48;101111.91;;;1.73;100.00
37610;BME280;23457;51.966;8.230;2024-03-08T05:34:16;101120.66;;;1.76;100.00
37610;BME280;23457;51.966;8.230;2024-03-08T05:36:43;101110.84;;;1.69;100.00
37610;BME280;23457;51.966;8.230;2024-03-08T05:39:12;101118.72;;;1.72;100.00
37610;BME280;23457;51.966;8.230;2024-03-08T05:41:39;101114.47;;;1.88;100.00
37610;BME280;23457;51.966;8.230;2024-03-08T05:44:07;101109.16;;;1.99;100.00
37610;BME280;23457;51.966;8.230;2024-03-08T05:46:35;101112.69;;;1.72;100.00
37610;BME280;23457;51.966;8.230;2024-03-08T05:49:06;101109.69;;;1.79;100.00
37610;BME280;23457;51.966;8.230;2024-03-08T05:51:34;101110.06;;;1.70;100.00
37610;BME280;23457;51.966;8.230;2024-03-08T05:54:04;101112.28;;;1.50;100.00
37610;BME280;23457;51.966;8.230;2024-03-08T05:56:38;101109.22;;;1.42;100.00
37610;BME280;23457;51.966;8.230;2024-03-08T05:59:05;101116.44;;;1.62;100.00
37610;BME280;23457;51.966;8.230;2024-03-08T06:01:31;101109.69;;;1.50;100.00
37610;BME280;23457;51.966;8.230;2024-03-08T06:03:58;101109.25;;;1.57;100.00
37610;BME280;23457;51.966;8.230;2024-03-08T06:06:25;101109.50;;;1.32;100.00
37610;BME280;23457;51.966;8.230;2024-03-08T06:08:52;101107.53;;;1.28;100.00
37610;BME280;23457;51.966;8.230;2024-03-08T06:11:20;101115.41;;;1.31;100.00
37610;BME280;23457;51.966;8.230;2024-03-08T06:13:47;101108.63;;;1.31;100.00
37610;BME280;23457;51.966;8.230;2024-03-08T06:16:14;101110.97;;;1.14;100.00
37610;BME280;23457;51.966;8.230;2024-03-08T06:18:40;101106.56;;;1.11;100.00
37610;BME280;23457;51.966;8.230;2024-03-08T06:21:08;101110.03;;;1.41;100.00
37610;BME280;23457;51.966;8.230;2024-03-08T06:23:39;101115.69;;;1.65;100.00
37610;BME280;23457;51.966;8.230;2024-03-08T06:26:06;101110.38;;;1.32;100.00
37610;BME280;23457;51.966;8.230;2024-03-08T06:28:33;101109.78;;;1.36;100.00
37610;BME280;23457;51.966;8.230;2024-03-08T06:31:01;101104.22;;;1.58;100.00
37610;BME280;23457;51.966;8.230;2024-03-08T06:33:29;101100.44;;;1.52;100.00
37610;BME280;23457;51.966;8.230;2024-03-08T06:35:56;101106.06;;;1.46;100.00
37610;BME280;23457;51.966;8.230;2024-03-08T06:38:24;101101.19;;;1.65;100.00
37610;BME280;23457;51.966;8.230;2024-03-08T06:40:52;101108.47;;;1.72;100.00
37610;BME280;23457;51.966;8.230;2024-03-08T06:43:21;101109.69;;;1.79;100.00
37610;BME280;23457;51.966;8.230;2024-03-08T06:45:49;101104.22;;;1.73;100.00
37610;BME280;23457;51.966;8.230;2024-03-08T06:48:17;101111.22;;;1.75;100.00
37610;BME280;23457;51.966;8.230;2024-03-08T06:50:44;101101.47;;;1.85;100.00
37610;BME280;23457;51.966;8.230;2024-03-08T06:53:12;101106.31;;;1.65;100.00
37610;BME280;23457;51.966;8.230;2024-03-08T06:55:39;101104.66;;;1.80;100.00
37610;BME280;23457;51.966;8.230;2024-03-08T06:58:06;101100.13;;;1.91;100.00
37610;BME280;23457;51.966;8.230;2024-03-08T07:00:33;101104.91;;;1.85;100.00
37610;BME280;23457;51.966;8.230;2024-03-08T07:03:00;101103.34;;;1.87;100.00
37610;BME280;23457;51.966;8.230;2024-03-08T07:05:30;101109.50;;;1.91;100.00
37610;BME280;23457;51.966;8.230;2024-03-08T07:07:57;101101.09;;;2.08;100.00
37610;BME280;23457;51.966;8.230;2024-03-08T07:10:24;101107.00;;;2.07;100.00
37610;BME280;23457;51.966;8.230;2024-03-08T07:12:52;101105.41;;;2.09;100.00
37610;BME280;23457;51.966;8.230;2024-03-08T07:15:22;101107.50;;;2.16;100.00
37610;BME280;23457;51.966;8.230;2024-03-08T07:17:50;101107.50;;;2.16;100.00
37610;BME280;23457;51.966;8.230;2024-03-08T07:20:19;101101.25;;;2.42;100.00
37610;BME280;23457;51.966;8.230;2024-03-08T07:22:46;101095.34;;;2.28;100.00
37610;BME280;23457;51.966;8.230;2024-03-08T07:25:19;101093.41;;;2.55;100.00
37610;BME280;23457;51.966;8.230;2024-03-08T07:27:48;101098.44;;;2.37;100.00
37610;BME280;23457;51.966;8.230;2024-03-08T07:30:15;101096.19;;;2.74;100.00
37610;BME280;23457;51.966;8.230;2024-03-08T07:33:04;101093.03;;;2.80;100.00
37610;BME280;23457;51.966;8.230;2024-03-08T07:35:30;101093.19;;;2.67;100.00
37610;BME280;23457;51.966;8.230;2024-03-08T07:37:57;101099.66;;;2.91;100.00
37610;BME280;23457;51.966;8.230;2024-03-08T07:40:26;101095.78;;;2.83;100.00
37610;BME280;23457;51.966;8.230;2024-03-08T07:42:53;101088.72;;;2.95;100.00
37610;BME280;23457;51.966;8.230;2024-03-08T07:45:19;101082.44;;;3.22;99.84
37610;BME280;23457;51.966;8.230;2024-03-08T07:47:48;101086.06;;;3.10;99.88
37610;BME280;23457;51.966;8.230;2024-03-08T07:50:15;101082.34;;;3.21;98.38
37610;BME280;23457;51.966;8.230;2024-03-08T07:52:43;101081.69;;;3.41;98.97
37610;BME280;23457;51.966;8.230;2024-03-08T07:55:10;101075.88;;;3.28;100.00
37610;BME280;23457;51.966;8.230;2024-03-08T07:57:39;101077.66;;;3.46;98.30
37610;BME280;23457;51.966;8.230;2024-03-08T08:00:06;101076.22;;;3.51;97.03
37610;BME280;23457;51.966;8.230;2024-03-08T08:02:35;101077.69;;;3.64;97.02
37610;BME280;23457;51.966;8.230;2024-03-08T08:05:06;101076.97;;;3.84;96.41
37610;BME280;23457;51.966;8.230;2024-03-08T08:07:33;101070.88;;;3.82;95.32
37610;BME280;23457;51.966;8.230;2024-03-08T08:10:00;101071.19;;;3.88;95.28
37610;BME280;23457;51.966;8.230;2024-03-08T08:12:27;101065.81;;;4.02;93.14
37610;BME280;23457;51.966;8.230;2024-03-08T08:14:55;101069.41;;;3.87;94.25
37610;BME280;23457;51.966;8.230;2024-03-08T08:17:23;101069.34;;;4.04;93.63
37610;BME280;23457;51.966;8.230;2024-03-08T08:19:49;101071.09;;;4.22;92.68
37610;BME280;23457;51.966;8.230;2024-03-08T08:22:16;101069.16;;;4.36;92.35
37610;BME280;23457;51.966;8.230;2024-03-08T08:24:44;101063.16;;;4.18;92.72
37610;BME280;23457;51.966;8.230;2024-03-08T08:27:11;101062.41;;;4.57;93.40
37610;BME280;23457;51.966;8.230;2024-03-08T08:29:38;101058.75;;;4.52;92.83
37610;BME280;23457;51.966;8.230;2024-03-08T08:32:05;101058.50;;;4.65;90.64
37610;BME280;23457;51.966;8.230;2024-03-08T08:34:31;101057.25;;;4.38;90.76
37610;BME280;23457;51.966;8.230;2024-03-08T08:36:58;101041.69;;;4.74;90.85
37610;BME280;23457;51.966;8.230;2024-03-08T08:39:25;101048.59;;;4.75;91.22
37610;BME280;23457;51.966;8.230;2024-03-08T08:41:52;101040.00;;;4.55;90.08
37610;BME280;23457;51.966;8.230;2024-03-08T08:44:21;101047.09;;;4.99;88.62
37610;BME280;23457;51.966;8.230;2024-03-08T08:46:48;101040.47;;;4.85;88.51
37610;BME280;23457;51.966;8.230;2024-03-08T08:49:16;101041.28;;;5.03;88.59
37610;BME280;23457;51.966;8.230;2024-03-08T08:51:50;101035.19;;;5.01;88.14
37610;BME280;23457;51.966;8.230;2024-03-08T08:54:19;101032.56;;;5.20;86.76
37610;BME280;23457;51.966;8.230;2024-03-08T08:56:47;101031.28;;;5.30;86.34
37610;BME280;23457;51.966;8.230;2024-03-08T08:59:14;101026.44;;;5.37;87.16
37610;BME280;23457;51.966;8.230;2024-03-08T09:01:40;101022.28;;;5.41;86.19
37610;BME280;23457;51.966;8.230;2024-03-08T09:04:07;101021.09;;;5.54;84.36
37610;BME280;23457;51.966;8.230;2024-03-08T09:06:34;101010.22;;;5.83;85.03
37610;BME280;23457;51.966;8.230;2024-03-08T09:09:02;101007.88;;;5.67;84.54
37610;BME280;23457;51.966;8.230;2024-03-08T09:11:32;101002.88;;;5.71;86.55
37610;BME280;23457;51.966;8.230;2024-03-08T09:13:59;101005.38;;;5.89;82.96
37610;BME280;23457;51.966;8.230;2024-03-08T09:16:26;101002.09;;;5.93;82.56
37610;BME280;23457;51.966;8.230;2024-03-08T09:18:53;100990.09;;;5.95;82.44
37610;BME280;23457;51.966;8.230;2024-03-08T09:21:19;100992.44;;;6.34;80.12
37610;BME280;23457;51.966;8.230;2024-03-08T09:23:49;100982.97;;;5.88;81.98
37610;BME280;23457;51.966;8.230;2024-03-08T09:26:16;100985.72;;;6.15;84.28
37610;BME280;23457;51.966;8.230;2024-03-08T09:28:54;100970.09;;;6.34;84.06
37610;BME280;23457;51.966;8.230;2024-03-08T09:31:23;100974.03;;;6.25;80.11
37610;BME280;23457;51.966;8.230;2024-03-08T09:33:50;100973.69;;;6.38;82.56
37610;BME280;23457;51.966;8.230;2024-03-08T09:36:17;100978.13;;;6.42;79.15
37610;BME280;23457;51.966;8.230;2024-03-08T09:38:44;100967.81;;;6.42;79.48
37610;BME280;23457;51.966;8.230;2024-03-08T09:41:10;100966.16;;;6.44;78.05
37610;BME280;23457;51.966;8.230;2024-03-08T09:43:37;100962.66;;;6.42;78.81
37610;BME280;23457;51.966;8.230;2024-03-08T09:46:04;100955.28;;;6.76;80.55
37610;BME280;23457;51.966;8.230;2024-03-08T09:48:34;100947.59;;;6.54;78.35
37610;BME280;23457;51.966;8.230;2024-03-08T09:51:03;100941.41;;;6.74;78.66
37610;BME280;23457;51.966;8.230;2024-03-08T09:53:30;100943.13;;;6.99;76.57
37610;BME280;23457;51.966;8.230;2024-03-08T09:55:57;100947.84;;;7.11;73.36
37610;BME280;23457;51.966;8.230;2024-03-08T09:58:29;100944.94;;;6.76;73.16
37610;BME280;23457;51.966;8.230;2024-03-08T10:01:03;100928.19;;;7.16;74.79
37610;BME280;23457;51.966;8.230;2024-03-08T10:03:32;100927.38;;;7.17;77.07
37610;BME280;23457;51.966;8.230;2024-03-08T10:05:59;100924.59;;;7.38;73.05
37610;BME280;23457;51.966;8.230;2024-03-08T10:08:27;100923.66;;;7.34;73.41
37610;BME280;23457;51.966;8.230;2024-03-08T10:10:57;100919.31;;;7.33;72.54
37610;BME280;23457;51.966;8.230;2024-03-08T10:13:25;100919.03;;;7.26;71.81
37610;BME280;23457;51.966;8.230;2024-03-08T10:15:55;100911.09;;;7.46;73.34
37610;BME280;23457;51.966;8.230;2024-03-08T10:18:22;100903.34;;;8.03;72.29
37610;BME280;23457;51.966;8.230;2024-03-08T10:21:08;100903.53;;;7.81;71.58
37610;BME280;23457;51.966;8.230;2024-03-08T10:23:37;100898.56;;;7.59;73.50
37610;BME280;23457;51.966;8.230;2024-03-08T10:26:11;100894.34;;;7.35;70.37
37610;BME280;23457;51.966;8.230;2024-03-08T10:28:44;100890.44;;;7.76;71.73
37610;BME280;23457;51.966;8.230;2024-03-08T10:31:12;100892.47;;;7.86;68.21
37610;BME280;23457;51.966;8.230;2024-03-08T10:33:42;100877.78;;;8.15;71.93
37610;BME280;23457;51.966;8.230;2024-03-08T10:36:10;100888.03;;;7.81;69.12
37610;BME280;23457;51.966;8.230;2024-03-08T10:38:38;100883.28;;;7.96;67.85
37610;BME280;23457;51.966;8.230;2024-03-08T10:41:11;100877.09;;;8.21;67.56
37610;BME280;23457;51.966;8.230;2024-03-08T10:49:37;100869.81;;;8.69;68.66
37610;BME280;23457;51.966;8.230;2024-03-08T10:52:05;100871.16;;;8.55;64.50
37610;BME280;23457;51.966;8.230;2024-03-08T10:54:37;100873.69;;;8.22;64.46
37610;BME280;23457;51.966;8.230;2024-03-08T10:57:12;100860.66;;;8.19;64.29
37610;BME280;23457;51.966;8.230;2024-03-08T10:59:40;100854.88;;;8.59;67.15
37610;BME280;23457;51.966;8.230;2024-03-08T11:02:12;100848.75;;;8.57;63.40
37610;BME280;23457;51.966;8.230;2024-03-08T11:04:45;100842.56;;;8.52;62.61
37610;BME280;23457;51.966;8.230;2024-03-08T11:07:12;100833.34;;;8.63;64.96
37610;BME280;23457;51.966;8.230;2024-03-08T11:09:44;100831.59;;;8.62;62.20
37610;BME280;23457;51.966;8.230;2024-03-08T11:14:47;100831.91;;;8.73;64.48
37610;BME280;23457;51.966;8.230;2024-03-08T11:17:16;100816.63;;;8.83;60.54
37610;BME280;23457;51.966;8.230;2024-03-08T11:19:48;100813.53;;;8.99;63.04
37610;BME280;23457;51.966;8.230;2024-03-08T11:22:22;100802.28;;;9.35;61.06
37610;BME280;23457;51.966;8.230;2024-03-08T11:24:53;100819.25;;;9.21;59.40
37610;BME280;23457;51.966;8.230;2024-03-08T11:27:32;100814.81;;;8.81;58.30
37610;BME280;23457;51.966;8.230;2024-03-08T11:30:04;100804.56;;;8.85;58.58
37610;BME280;23457;51.966;8.230;2024-03-08T11:32:45;100796.38;;;9.42;58.63
37610;BME280;23457;51.966;8.230;2024-03-08T11:35:20;100796.63;;;9.54;58.30
37610;BME280;23457;51.966;8.230;2024-03-08T11:37:47;100787.34;;;9.65;60.51
37610;BME280;23457;51.966;8.230;2024-03-08T11:40:15;100784.38;;;9.88;57.76
37610;BME280;23457;51.966;8.230;2024-03-08T11:42:47;100768.88;;;9.92;57.17
37610;BME280;23457;51.966;8.230;2024-03-08T11:45:18;100773.06;;;10.29;58.85
37610;BME280;23457;51.966;8.230;2024-03-08T11:47:48;100762.56;;;10.23;58.22
37610;BME280;23457;51.966;8.230;2024-03-08T11:50:16;100765.28;;;9.86;55.69
37610;BME280;23457;51.966;8.230;2024-03-08T11:52:46;100764.91;;;10.11;56.01
37610;BME280;23457;51.966;8.230;2024-03-08T11:55:13;100758.69;;;10.03;56.31
37610;BME280;23457;51.966;8.230;2024-03-08T11:57:40;100750.69;;;9.50;56.59
37610;BME280;23457;51.966;8.230;2024-03-08T12:00:16;100754.69;;;9.77;55.88
37610;BME280;23457;51.966;8.230;2024-03-08T12:03:06;100744.09;;;10.10;56.23
37610;BME280;23457;51.966;8.230;2024-03-08T12:05:33;100738.59;;;9.93;54.72
37610;BME280;23457;51.966;8.230;2024-03-08T12:08:01;100730.06;;;10.47;57.00
37610;BME280;23457;51.966;8.230;2024-03-08T12:10:28;100719.78;;;10.06;54.89
37610;BME280;23457;51.966;8.230;2024-03-08T12:12:58;100720.34;;;10.35;55.77
37610;BME280;23457;51.966;8.230;2024-03-08T12:15:28;100718.28;;;10.68;56.66
37610;BME280;23457;51.966;8.230;2024-03-08T12:17:55;100710.31;;;9.61;55.63
37610;BME280;23457;51.966;8.230;2024-03-08T12:20:23;100718.41;;;10.76;57.26
37610;BME280;23457;51.966;8.230;2024-03-08T12:22:55;100696.94;;;10.33;55.33
37610;BME280;23457;51.966;8.230;2024-03-08T12:25:33;100696.13;;;10.93;55.08
37610;BME280;23457;51.966;8.230;2024-03-08T12:28:11;100700.00;;;10.64;54.43
37610;BME280;23457;51.966;8.230;2024-03-08T12:30:47;100688.28;;;10.89;53.69
37610;BME280;23457;51.966;8.230;2024-03-08T12:33:14;100691.78;;;10.92;55.34
37610;BME280;23457;51.966;8.230;2024-03-08T12:35:50;100677.25;;;11.08;55.01
37610;BME280;23457;51.966;8.230;2024-03-08T12:38:17;100676.13;;;10.89;54.27
37610;BME280;23457;51.966;8.230;2024-03-08T12:40:43;100682.66;;;10.10;55.97
37610;BME280;23457;51.966;8.230;2024-03-08T12:43:10;100670.78;;;9.76;57.87
37610;BME280;23457;51.966;8.230;2024-03-08T12:45:38;100654.22;;;10.72;59.65
37610;BME280;23457;51.966;8.230;2024-03-08T12:48:12;100661.31;;;9.80;58.29
37610;BME280;23457;51.966;8.230;2024-03-08T12:50:41;100651.72;;;9.76;58.50
37610;BME280;23457;51.966;8.230;2024-03-08T12:53:10;100651.09;;;9.89;58.35
37610;BME280;23457;51.966;8.230;2024-03-08T12:55:37;100645.22;;;10.49;57.07
37610;BME280;23457;51.966;8.230;2024-03-08T12:58:04;100645.16;;;11.07;56.41
37610;BME280;23457;51.966;8.230;2024-03-08T13:00:34;100641.19;;;10.70;55.21
37610;BME280;23457;51.966;8.230;2024-03-08T13:03:03;100628.38;;;10.83;57.40
37610;BME280;23457;51.966;8.230;2024-03-08T13:05:30;100622.84;;;11.25;56.26
37610;BME280;23457;51.966;8.230;2024-03-08T13:07:57;100622.06;;;11.32;55.11